sensor_id;sensor_type;location;lat;lon;timestamp;pressure;altitude;pressure_sealevel;temperature;humidity
64025;BME280;50266;57.446;26.936;2023-01-29T00:00:34;99215.09;;;-4.03;100.0
64025;BME280;50266;57.446;26.936;2023-01-29T00:01:34;99205.38;;;-4.05;100.0
64025;BME280;50266;57.446;26.936;2023-01-29T00:02:34;99205.14;;;-4.07;100.0
64025;BME280;50266;57.446;26.936;2023-01-29T00:03:34;99205.27;;;-4.04;100.0
64025;BME280;50266;57.446;26.936;2023-01-29T00:04:34;99206.25;;;-4.06;100.0
64025;BME280;50266;57.446;26.936;2023-01-29T00:05:34;99210.11;;;-4.08;100.0
64025;BME280;50266;57.446;26.936;2023-01-29T00:06:34;99207.48;;;-4.04;100.0
64025;BME280;50266;57.446;26.936;2023-01-29T00:07:34;99204.97;;;-4.02;100.0
64025;BME280;50266;57.446;26.936;2023-01-29T00:08:34;99205.18;;;-4.02;100.0
64025;BME280;50266;57.446;26.936;2023-01-29T00:09:34;99208.21;;;-4.02;100.0
64025;BME280;50266;57.446;26.936;2023-01-29T00:10:34;99207.28;;;-4.01;100.0
64025;BME280;50266;57.446;26.936;2023-01-29T00:11:34;99203.67;;;-4.02;100.0
64025;BME280;50266;57.446;26.936;2023-01-29T00:12:34;99202.53;;;-4.02;100.0
64025;BME280;50266;57.446;26.936;2023-01-29T00:13:34;99200.3;;;-4.01;100.0
64025;BME280;50266;57.446;26.936;2023-01-29T00:14:34;99197.0;;;-4.01;100.0
64025;BME280;50266;57.446;26.936;2023-01-29T00:15:34;99202.41;;;-4.01;100.0
64025;BME280;50266;57.446;26.936;2023-01-29T00:16:34;99203.98;;;-4.02;100.0
64025;BME280;50266;57.446;26.936;2023-01-29T00:17:34;99203.47;;;-4.04;100.0
64025;BME280;50266;57.446;26.936;2023-01-29T00:18:37;99200.23;;;-4.0;100.0
64025;BME280;50266;57.446;26.936;2023-01-29T00:19:34;99210.5;;;-4.0;100.0
64025;BME280;50266;57.446;26.936;2023-01-29T00:20:34;99199.77;;;-4.01;100.0
64025;BME280;50266;57.446;26.936;2023-01-29T00:21:34;99197.38;;;-4.0;100.0
64025;BME280;50266;57.446;26.936;2023-01-29T00:22:34;99191.36;;;-4.0;100.0
64025;BME280;50266;57.446;26.936;2023-01-29T00:23:34;99194.66;;;-3.99;100.0
64025;BME280;50266;57.446;26.936;2023-01-29T00:24:34;99187.51;;;-3.98;100.0
64025;BME280;50266;57.446;26.936;2023-01-29T00:25:34;99191.11;;;-3.96;100.0
64025;BME280;50266;57.446;26.936;2023-01-29T00:26:34;99187.92;;;-3.96;100.0
64025;BME280;50266;57.446;26.936;2023-01-29T00:27:34;99194.19;;;-3.96;100.0
64025;BME280;50266;57.446;26.936;2023-01-29T00:28:34;99201.83;;;-3.98;100.0
64025;BME280;50266;57.446;26.936;2023-01-29T00:29:34;99203.15;;;-3.99;100.0
64025;BME280;50266;57.446;26.936;2023-01-29T00:30:35;99206.28;;;-3.99;100.0
64025;BME280;50266;57.446;26.936;2023-01-29T00:31:34;99209.82;;;-3.96;100.0
64025;BME280;50266;57.446;26.936;2023-01-29T00:32:34;99200.06;;;-3.99;100.0
64025;BME280;50266;57.446;26.936;2023-01-29T00:33:34;99208.99;;;-3.95;100.0
64025;BME280;50266;57.446;26.936;2023-01-29T00:34:34;99213.67;;;-3.97;100.0
64025;BME280;50266;57.446;26.936;2023-01-29T00:35:34;99209.39;;;-3.97;100.0
64025;BME280;50266;57.446;26.936;2023-01-29T00:36:34;99206.08;;;-3.95;100.0
64025;BME280;50266;57.446;26.936;2023-01-29T00:37:34;99204.48;;;-3.97;100.0
64025;BME280;50266;57.446;26.936;2023-01-29T00:38:35;99204.73;;;-3.95;100.0
64025;BME280;50266;57.446;26.936;2023-01-29T00:39:34;99202.69;;;-3.97;100.0
64025;BME280;50266;57.446;26.936;2023-01-29T00:40:38;99202.15;;;-3.97;100.0
64025;BME280;50266;57.446;26.936;2023-01-29T00:41:38;99199.3;;;-3.94;100.0
64025;BME280;50266;57.446;26.936;2023-01-29T00:42:38;99192.18;;;-3.95;100.0
64025;BME280;50266;57.446;26.936;2023-01-29T00:43:38;99199.06;;;-3.96;100.0
64025;BME280;50266;57.446;26.936;2023-01-29T00:44:38;99195.58;;;-3.93;100.0
64025;BME280;50266;57.446;26.936;2023-01-29T00:45:38;99197.69;;;-3.94;100.0
64025;BME280;50266;57.446;26.936;2023-01-29T00:46:38;99198.7;;;-3.94;100.0
64025;BME280;50266;57.446;26.936;2023-01-29T00:47:38;99197.91;;;-3.93;100.0
64025;BME280;50266;57.446;26.936;2023-01-29T00:48:38;99201.14;;;-3.94;100.0
64025;BME280;50266;57.446;26.936;2023-01-29T00:49:38;99199.31;;;-3.93;100.0
64025;BME280;50266;57.446;26.936;2023-01-29T00:50:38;99199.84;;;-3.92;100.0
64025;BME280;50266;57.446;26.936;2023-01-29T00:51:38;99194.72;;;-3.89;100.0
64025;BME280;50266;57.446;26.936;2023-01-29T00:52:38;99203.73;;;-3.92;100.0
64025;BME280;50266;57.446;26.936;2023-01-29T00:53:38;99196.66;;;-3.93;100.0
64025;BME280;50266;57.446;26.936;2023-01-29T00:54:38;99200.98;;;-3.92;100.0
64025;BME280;50266;57.446;26.936;2023-01-29T00:55:38;99198.44;;;-3.92;100.0
64025;BME280;50266;57.446;26.936;2023-01-29T00:56:38;99187.61;;;-3.92;100.0
64025;BME280;50266;57.446;26.936;2023-01-29T00:57:38;99188.73;;;-3.91;100.0
64025;BME280;50266;57.446;26.936;2023-01-29T00:58:38;99191.8;;;-3.89;100.0
64025;BME280;50266;57.446;26.936;2023-01-29T00:59:38;99192.69;;;-3.91;100.0
64025;BME280;50266;57.446;26.936;2023-01-29T01:00:38;99194.48;;;-3.92;100.0
64025;BME280;50266;57.446;26.936;2023-01-29T01:01:38;99188.06;;;-3.93;100.0
64025;BME280;50266;57.446;26.936;2023-01-29T01:02:38;99195.02;;;-3.91;100.0
64025;BME280;50266;57.446;26.936;2023-01-29T01:03:38;99193.54;;;-3.9;100.0
64025;BME280;50266;57.446;26.936;2023-01-29T01:04:38;99198.2;;;-3.91;100.0
64025;BME280;50266;57.446;26.936;2023-01-29T01:05:38;99196.73;;;-3.9;100.0
64025;BME280;50266;57.446;26.936;2023-01-29T01:06:39;99192.17;;;-3.88;100.0
64025;BME280;50266;57.446;26.936;2023-01-29T01:07:39;99192.14;;;-3.91;100.0
64025;BME280;50266;57.446;26.936;2023-01-29T01:08:38;99197.58;;;-3.88;100.0
64025;BME280;50266;57.446;26.936;2023-01-29T01:09:38;99203.65;;;-3.89;100.0
64025;BME280;50266;57.446;26.936;2023-01-29T01:10:38;99188.78;;;-3.9;100.0
64025;BME280;50266;57.446;26.936;2023-01-29T01:11:38;99196.59;;;-3.88;100.0
64025;BME280;50266;57.446;26.936;2023-01-29T01:12:38;99201.23;;;-3.86;100.0
64025;BME280;50266;57.446;26.936;2023-01-29T01:13:38;99186.05;;;-3.88;100.0
64025;BME280;50266;57.446;26.936;2023-01-29T01:14:38;99195.17;;;-3.91;100.0
64025;BME280;50266;57.446;26.936;2023-01-29T01:15:38;99187.48;;;-3.86;100.0
64025;BME280;50266;57.446;26.936;2023-01-29T01:16:38;99189.45;;;-3.88;100.0
64025;BME280;50266;57.446;26.936;2023-01-29T01:17:38;99181.67;;;-3.88;100.0
64025;BME280;50266;57.446;26.936;2023-01-29T01:18:38;99181.24;;;-3.88;100.0
64025;BME280;50266;57.446;26.936;2023-01-29T01:19:38;99183.73;;;-3.88;100.0
64025;BME280;50266;57.446;26.936;2023-01-29T01:20:38;99178.83;;;-3.85;100.0
64025;BME280;50266;57.446;26.936;2023-01-29T01:21:39;99180.13;;;-3.86;100.0
64025;BME280;50266;57.446;26.936;2023-01-29T01:22:38;99180.81;;;-3.88;100.0
64025;BME280;50266;57.446;26.936;2023-01-29T01:23:38;99173.53;;;-3.86;100.0
64025;BME280;50266;57.446;26.936;2023-01-29T01:24:38;99178.0;;;-3.88;100.0
64025;BME280;50266;57.446;26.936;2023-01-29T01:25:39;99176.3;;;-3.9;100.0
64025;BME280;50266;57.446;26.936;2023-01-29T01:26:38;99173.73;;;-3.89;100.0
64025;BME280;50266;57.446;26.936;2023-01-29T01:27:38;99179.52;;;-3.89;100.0
64025;BME280;50266;57.446;26.936;2023-01-29T01:28:39;99170.02;;;-3.86;100.0
64025;BME280;50266;57.446;26.936;2023-01-29T01:29:39;99171.09;;;-3.85;100.0
64025;BME280;50266;57.446;26.936;2023-01-29T01:30:39;99172.16;;;-3.84;100.0
64025;BME280;50266;57.446;26.936;2023-01-29T01:31:39;99170.98;;;-3.81;100.0
64025;BME280;50266;57.446;26.936;2023-01-29T01:32:39;99171.47;;;-3.81;100.0
64025;BME280;50266;57.446;26.936;2023-01-29T01:33:39;99168.11;;;-3.85;100.0
64025;BME280;50266;57.446;26.936;2023-01-29T01:34:39;99165.72;;;-3.84;100.0
64025;BME280;50266;57.446;26.936;2023-01-29T01:35:39;99168.77;;;-3.85;100.0
64025;BME280;50266;57.446;26.936;2023-01-29T01:36:39;99164.91;;;-3.84;100.0
64025;BME280;50266;57.446;26.936;2023-01-29T01:37:39;99161.97;;;-3.82;100.0
64025;BME280;50266;57.446;26.936;2023-01-29T01:38:39;99164.52;;;-3.78;100.0
64025;BME280;50266;57.446;26.936;2023-01-29T01:39:39;99164.77;;;-3.77;100.0
64025;BME280;50266;57.446;26.936;2023-01-29T01:40:42;99161.66;;;-3.79;100.0
64025;BME280;50266;57.446;26.936;2023-01-29T01:41:39;99155.04;;;-3.82;100.0
64025;BME280;50266;57.446;26.936;2023-01-29T01:42:39;99155.91;;;-3.78;100.0
64025;BME280;50266;57.446;26.936;2023-01-29T01:44:51;99153.33;;;-3.79;100.0
64025;BME280;50266;57.446;26.936;2023-01-29T01:45:42;99152.16;;;-3.81;100.0
64025;BME280;50266;57.446;26.936;2023-01-29T01:46:42;99161.87;;;-3.79;100.0
64025;BME280;50266;57.446;26.936;2023-01-29T01:47:44;99153.19;;;-3.81;100.0
64025;BME280;50266;57.446;26.936;2023-01-29T01:48:43;99151.5;;;-3.81;100.0
64025;BME280;50266;57.446;26.936;2023-01-29T01:49:43;99151.44;;;-3.79;100.0
64025;BME280;50266;57.446;26.936;2023-01-29T01:50:48;99149.66;;;-3.79;100.0
64025;BME280;50266;57.446;26.936;2023-01-29T01:51:46;99143.63;;;-3.74;100.0
64025;BME280;50266;57.446;26.936;2023-01-29T01:52:46;99141.42;;;-3.75;100.0
64025;BME280;50266;57.446;26.936;2023-01-29T01:53:54;99148.05;;;-3.73;100.0
64025;BME280;50266;57.446;26.936;2023-01-29T01:54:46;99143.58;;;-3.74;100.0
64025;BME280;50266;57.446;26.936;2023-01-29T01:55:47;99141.83;;;-3.72;100.0
64025;BME280;50266;57.446;26.936;2023-01-29T01:56:48;99145.77;;;-3.7;100.0
64025;BME280;50266;57.446;26.936;2023-01-29T01:57:47;99139.29;;;-3.73;100.0
64025;BME280;50266;57.446;26.936;2023-01-29T01:58:51;99139.83;;;-3.71;100.0
64025;BME280;50266;57.446;26.936;2023-01-29T01:59:49;99138.11;;;-3.69;100.0
64025;BME280;50266;57.446;26.936;2023-01-29T02:00:48;99134.1;;;-3.68;100.0
64025;BME280;50266;57.446;26.936;2023-01-29T02:01:49;99136.47;;;-3.67;100.0
64025;BME280;50266;57.446;26.936;2023-01-29T02:02:49;99135.11;;;-3.71;100.0
64025;BME280;50266;57.446;26.936;2023-01-29T02:04:04;99134.19;;;-3.7;100.0
64025;BME280;50266;57.446;26.936;2023-01-29T02:04:52;99135.34;;;-3.68;100.0
64025;BME280;50266;57.446;26.936;2023-01-29T02:05:52;99131.64;;;-3.7;100.0
64025;BME280;50266;57.446;26.936;2023-01-29T02:06:51;99131.08;;;-3.69;100.0
64025;BME280;50266;57.446;26.936;2023-01-29T02:07:51;99129.55;;;-3.68;100.0
64025;BME280;50266;57.446;26.936;2023-01-29T02:08:54;99126.45;;;-3.67;100.0
64025;BME280;50266;57.446;26.936;2023-01-29T02:09:59;99122.38;;;-3.69;100.0
64025;BME280;50266;57.446;26.936;2023-01-29T02:10:57;99118.8;;;-3.68;100.0
64025;BME280;50266;57.446;26.936;2023-01-29T02:11:57;99118.69;;;-3.68;100.0
64025;BME280;50266;57.446;26.936;2023-01-29T02:12:57;99122.27;;;-3.69;100.0
64025;BME280;50266;57.446;26.936;2023-01-29T02:13:57;99122.52;;;-3.68;100.0
64025;BME280;50266;57.446;26.936;2023-01-29T02:14:57;99116.83;;;-3.67;100.0
64025;BME280;50266;57.446;26.936;2023-01-29T02:15:57;99114.77;;;-3.67;100.0
64025;BME280;50266;57.446;26.936;2023-01-29T02:16:59;99118.17;;;-3.66;100.0
64025;BME280;50266;57.446;26.936;2023-01-29T02:17:57;99120.69;;;-3.69;100.0
64025;BME280;50266;57.446;26.936;2023-01-29T02:18:57;99116.51;;;-3.64;100.0
64025;BME280;50266;57.446;26.936;2023-01-29T02:20:02;99110.4;;;-3.64;100.0
64025;BME280;50266;57.446;26.936;2023-01-29T02:23:20;99113.22;;;-3.68;100.0
64025;BME280;50266;57.446;26.936;2023-01-29T02:24:35;99103.29;;;-3.7;100.0
64025;BME280;50266;57.446;26.936;2023-01-29T02:25:28;99110.41;;;-3.69;100.0
64025;BME280;50266;57.446;26.936;2023-01-29T02:26:14;99110.95;;;-3.69;100.0
64025;BME280;50266;57.446;26.936;2023-01-29T02:27:18;99106.17;;;-3.68;100.0
64025;BME280;50266;57.446;26.936;2023-01-29T02:29:22;99098.26;;;-3.7;100.0
64025;BME280;50266;57.446;26.936;2023-01-29T02:31:33;99104.36;;;-3.69;100.0
64025;BME280;50266;57.446;26.936;2023-01-29T02:32:36;99100.42;;;-3.67;100.0
64025;BME280;50266;57.446;26.936;2023-01-29T02:33:35;99096.34;;;-3.68;100.0
64025;BME280;50266;57.446;26.936;2023-01-29T02:34:47;99096.31;;;-3.66;100.0
64025;BME280;50266;57.446;26.936;2023-01-29T02:35:42;99096.86;;;-3.67;100.0
64025;BME280;50266;57.446;26.936;2023-01-29T02:36:50;99096.58;;;-3.66;100.0
64025;BME280;50266;57.446;26.936;2023-01-29T02:37:37;99094.2;;;-3.66;100.0
64025;BME280;50266;57.446;26.936;2023-01-29T02:38:44;99098.14;;;-3.62;100.0
64025;BME280;50266;57.446;26.936;2023-01-29T02:39:56;99098.38;;;-3.63;100.0
64025;BME280;50266;57.446;26.936;2023-01-29T02:40:56;99091.45;;;-3.64;100.0
64025;BME280;50266;57.446;26.936;2023-01-29T02:42:48;99095.59;;;-3.58;100.0
64025;BME280;50266;57.446;26.936;2023-01-29T02:43:52;99090.42;;;-3.6;100.0
64025;BME280;50266;57.446;26.936;2023-01-29T02:44:54;99089.73;;;-3.6;100.0
64025;BME280;50266;57.446;26.936;2023-01-29T02:46:14;99092.48;;;-3.6;100.0
64025;BME280;50266;57.446;26.936;2023-01-29T02:47:00;99091.05;;;-3.62;100.0
64025;BME280;50266;57.446;26.936;2023-01-29T02:47:59;99094.38;;;-3.64;100.0
64025;BME280;50266;57.446;26.936;2023-01-29T02:49:21;99083.57;;;-3.61;100.0
64025;BME280;50266;57.446;26.936;2023-01-29T02:50:04;99085.15;;;-3.61;100.0
64025;BME280;50266;57.446;26.936;2023-01-29T02:51:23;99078.58;;;-3.6;100.0
64025;BME280;50266;57.446;26.936;2023-01-29T02:54:22;99080.84;;;-3.59;100.0
64025;BME280;50266;57.446;26.936;2023-01-29T02:55:15;99079.75;;;-3.62;100.0
64025;BME280;50266;57.446;26.936;2023-01-29T02:56:18;99080.36;;;-3.6;100.0
64025;BME280;50266;57.446;26.936;2023-01-29T02:57:18;99078.48;;;-3.61;100.0
64025;BME280;50266;57.446;26.936;2023-01-29T02:58:19;99087.62;;;-3.6;100.0
64025;BME280;50266;57.446;26.936;2023-01-29T02:59:23;99083.67;;;-3.61;100.0
64025;BME280;50266;57.446;26.936;2023-01-29T03:00:22;99082.92;;;-3.57;100.0
64025;BME280;50266;57.446;26.936;2023-01-29T03:03:31;99083.88;;;-3.56;100.0
64025;BME280;50266;57.446;26.936;2023-01-29T03:04:30;99089.2;;;-3.57;100.0
64025;BME280;50266;57.446;26.936;2023-01-29T03:05:30;99085.38;;;-3.55;100.0
64025;BME280;50266;57.446;26.936;2023-01-29T03:06:31;99085.59;;;-3.55;100.0
64025;BME280;50266;57.446;26.936;2023-01-29T03:07:32;99081.02;;;-3.56;100.0
64025;BME280;50266;57.446;26.936;2023-01-29T03:08:38;99077.0;;;-3.56;100.0
64025;BME280;50266;57.446;26.936;2023-01-29T03:09:35;99082.58;;;-3.56;100.0
64025;BME280;50266;57.446;26.936;2023-01-29T03:10:46;99081.41;;;-3.57;100.0
64025;BME280;50266;57.446;26.936;2023-01-29T03:11:39;99075.22;;;-3.56;100.0
64025;BME280;50266;57.446;26.936;2023-01-29T03:12:38;99073.53;;;-3.55;100.0
64025;BME280;50266;57.446;26.936;2023-01-29T03:13:44;99076.48;;;-3.53;100.0
64025;BME280;50266;57.446;26.936;2023-01-29T03:14:42;99082.15;;;-3.56;100.0
64025;BME280;50266;57.446;26.936;2023-01-29T03:15:43;99074.33;;;-3.55;100.0
64025;BME280;50266;57.446;26.936;2023-01-29T03:16:44;99074.48;;;-3.54;100.0
64025;BME280;50266;57.446;26.936;2023-01-29T03:17:53;99073.01;;;-3.52;100.0
64025;BME280;50266;57.446;26.936;2023-01-29T03:18:50;99061.91;;;-3.57;100.0
64025;BME280;50266;57.446;26.936;2023-01-29T03:19:47;99061.87;;;-3.53;100.0
64025;BME280;50266;57.446;26.936;2023-01-29T03:20:51;99062.64;;;-3.55;100.0
64025;BME280;50266;57.446;26.936;2023-01-29T03:21:51;99059.25;;;-3.55;100.0
64025;BME280;50266;57.446;26.936;2023-01-29T03:22:50;99055.12;;;-3.55;100.0
64025;BME280;50266;57.446;26.936;2023-01-29T03:23:49;99054.16;;;-3.55;100.0
64025;BME280;50266;57.446;26.936;2023-01-29T03:24:50;99053.67;;;-3.55;100.0
64025;BME280;50266;57.446;26.936;2023-01-29T03:25:50;99045.1;;;-3.57;100.0
64025;BME280;50266;57.446;26.936;2023-01-29T03:26:49;99044.16;;;-3.55;100.0
64025;BME280;50266;57.446;26.936;2023-01-29T03:27:56;99045.35;;;-3.53;100.0
64025;BME280;50266;57.446;26.936;2023-01-29T03:28:53;99042.48;;;-3.52;100.0
64025;BME280;50266;57.446;26.936;2023-01-29T03:29:53;99044.05;;;-3.51;100.0
64025;BME280;50266;57.446;26.936;2023-01-29T03:30:53;99039.83;;;-3.52;100.0
64025;BME280;50266;57.446;26.936;2023-01-29T03:31:54;99046.48;;;-3.51;100.0
64025;BME280;50266;57.446;26.936;2023-01-29T03:32:53;99048.97;;;-3.51;100.0
64025;BME280;50266;57.446;26.936;2023-01-29T03:33:55;99042.27;;;-3.48;100.0
64025;BME280;50266;57.446;26.936;2023-01-29T03:34:59;99044.81;;;-3.49;100.0
64025;BME280;50266;57.446;26.936;2023-01-29T03:36:01;99045.84;;;-3.48;100.0
64025;BME280;50266;57.446;26.936;2023-01-29T03:38:06;99046.36;;;-3.47;100.0
64025;BME280;50266;57.446;26.936;2023-01-29T03:39:05;99046.02;;;-3.46;100.0
64025;BME280;50266;57.446;26.936;2023-01-29T03:40:05;99044.16;;;-3.44;100.0
64025;BME280;50266;57.446;26.936;2023-01-29T03:41:07;99051.1;;;-3.46;100.0
64025;BME280;50266;57.446;26.936;2023-01-29T03:43:11;99044.8;;;-3.44;100.0
64025;BME280;50266;57.446;26.936;2023-01-29T03:45:17;99042.92;;;-3.42;100.0
64025;BME280;50266;57.446;26.936;2023-01-29T03:46:26;99044.45;;;-3.43;100.0
64025;BME280;50266;57.446;26.936;2023-01-29T03:47:19;99047.74;;;-3.42;100.0
64025;BME280;50266;57.446;26.936;2023-01-29T03:48:27;99053.32;;;-3.39;100.0
64025;BME280;50266;57.446;26.936;2023-01-29T03:50:30;99045.49;;;-3.4;100.0
64025;BME280;50266;57.446;26.936;2023-01-29T03:51:32;99047.3;;;-3.42;100.0
64025;BME280;50266;57.446;26.936;2023-01-29T03:52:38;99042.44;;;-3.42;100.0
64025;BME280;50266;57.446;26.936;2023-01-29T03:53:46;99041.61;;;-3.41;100.0
64025;BME280;50266;57.446;26.936;2023-01-29T03:54:44;99036.16;;;-3.38;100.0
64025;BME280;50266;57.446;26.936;2023-01-29T03:55:55;99037.52;;;-3.39;100.0
64025;BME280;50266;57.446;26.936;2023-01-29T03:56:46;99033.45;;;-3.39;100.0
64025;BME280;50266;57.446;26.936;2023-01-29T03:57:54;99036.19;;;-3.37;100.0
64025;BME280;50266;57.446;26.936;2023-01-29T03:58:56;99030.63;;;-3.38;100.0
64025;BME280;50266;57.446;26.936;2023-01-29T03:59:59;99030.31;;;-3.36;100.0
64025;BME280;50266;57.446;26.936;2023-01-29T04:00:59;99027.08;;;-3.39;100.0
64025;BME280;50266;57.446;26.936;2023-01-29T04:01:58;99027.64;;;-3.37;100.0
64025;BME280;50266;57.446;26.936;2023-01-29T04:03:19;99027.45;;;-3.36;100.0
64025;BME280;50266;57.446;26.936;2023-01-29T04:04:03;99024.31;;;-3.36;100.0
64025;BME280;50266;57.446;26.936;2023-01-29T04:05:04;99027.34;;;-3.36;100.0
64025;BME280;50266;57.446;26.936;2023-01-29T04:07:04;99023.54;;;-3.35;100.0
64025;BME280;50266;57.446;26.936;2023-01-29T04:08:07;99025.8;;;-3.34;100.0
64025;BME280;50266;57.446;26.936;2023-01-29T04:09:08;99030.25;;;-3.35;100.0
64025;BME280;50266;57.446;26.936;2023-01-29T04:10:08;99026.25;;;-3.32;100.0
64025;BME280;50266;57.446;26.936;2023-01-29T04:11:09;99026.35;;;-3.32;100.0
64025;BME280;50266;57.446;26.936;2023-01-29T04:12:08;99023.28;;;-3.33;100.0
64025;BME280;50266;57.446;26.936;2023-01-29T04:13:10;99018.86;;;-3.34;100.0
64025;BME280;50266;57.446;26.936;2023-01-29T04:14:08;99013.21;;;-3.31;100.0
64025;BME280;50266;57.446;26.936;2023-01-29T04:15:08;99003.05;;;-3.34;100.0
64025;BME280;50266;57.446;26.936;2023-01-29T04:16:12;99003.95;;;-3.31;100.0
64025;BME280;50266;57.446;26.936;2023-01-29T04:17:17;99000.9;;;-3.3;100.0
64025;BME280;50266;57.446;26.936;2023-01-29T04:18:10;98995.67;;;-3.33;100.0
64025;BME280;50266;57.446;26.936;2023-01-29T04:19:10;98998.54;;;-3.31;100.0
64025;BME280;50266;57.446;26.936;2023-01-29T04:20:10;98987.01;;;-3.31;100.0
64025;BME280;50266;57.446;26.936;2023-01-29T04:21:10;98990.81;;;-3.29;100.0
64025;BME280;50266;57.446;26.936;2023-01-29T04:22:12;98987.65;;;-3.27;100.0
64025;BME280;50266;57.446;26.936;2023-01-29T04:23:23;98984.55;;;-3.3;100.0
64025;BME280;50266;57.446;26.936;2023-01-29T04:24:15;98977.25;;;-3.3;100.0
64025;BME280;50266;57.446;26.936;2023-01-29T04:25:16;98981.34;;;-3.29;100.0
64025;BME280;50266;57.446;26.936;2023-01-29T04:27:40;98979.69;;;-3.3;100.0
64025;BME280;50266;57.446;26.936;2023-01-29T04:28:25;98986.97;;;-3.29;100.0
64025;BME280;50266;57.446;26.936;2023-01-29T04:29:34;98985.95;;;-3.29;100.0
64025;BME280;50266;57.446;26.936;2023-01-29T04:31:29;98987.31;;;-3.24;100.0
64025;BME280;50266;57.446;26.936;2023-01-29T04:32:39;98986.12;;;-3.24;100.0
64025;BME280;50266;57.446;26.936;2023-01-29T04:33:35;98985.48;;;-3.22;100.0
64025;BME280;50266;57.446;26.936;2023-01-29T04:34:47;98992.08;;;-3.21;100.0
64025;BME280;50266;57.446;26.936;2023-01-29T04:35:42;98989.3;;;-3.23;100.0
64025;BME280;50266;57.446;26.936;2023-01-29T04:37:55;98988.83;;;-3.24;100.0
64025;BME280;50266;57.446;26.936;2023-01-29T04:38:49;98989.52;;;-3.23;100.0
64025;BME280;50266;57.446;26.936;2023-01-29T04:40:13;98989.72;;;-3.22;100.0
64025;BME280;50266;57.446;26.936;2023-01-29T04:42:00;98986.4;;;-3.21;100.0
64025;BME280;50266;57.446;26.936;2023-01-29T04:44:10;98982.19;;;-3.19;100.0
64025;BME280;50266;57.446;26.936;2023-01-29T04:45:25;98982.13;;;-3.19;100.0
64025;BME280;50266;57.446;26.936;2023-01-29T04:46:12;98984.97;;;-3.2;100.0
64025;BME280;50266;57.446;26.936;2023-01-29T04:47:18;98980.94;;;-3.19;100.0
64025;BME280;50266;57.446;26.936;2023-01-29T04:48:21;98975.2;;;-3.16;100.0
64025;BME280;50266;57.446;26.936;2023-01-29T04:49:18;98978.5;;;-3.16;100.0
64025;BME280;50266;57.446;26.936;2023-01-29T04:50:25;98979.42;;;-3.16;100.0
64025;BME280;50266;57.446;26.936;2023-01-29T04:52:29;98976.02;;;-3.17;100.0
64025;BME280;50266;57.446;26.936;2023-01-29T04:53:34;98979.14;;;-3.15;100.0
64025;BME280;50266;57.446;26.936;2023-01-29T04:55:39;98980.61;;;-3.13;100.0
64025;BME280;50266;57.446;26.936;2023-01-29T04:56:39;98971.53;;;-3.14;100.0
64025;BME280;50266;57.446;26.936;2023-01-29T04:58:42;98971.98;;;-3.12;100.0
64025;BME280;50266;57.446;26.936;2023-01-29T04:59:41;98971.21;;;-3.14;100.0
64025;BME280;50266;57.446;26.936;2023-01-29T05:00:41;98968.61;;;-3.14;100.0
64025;BME280;50266;57.446;26.936;2023-01-29T05:01:40;98972.5;;;-3.13;100.0
64025;BME280;50266;57.446;26.936;2023-01-29T05:02:40;98974.94;;;-3.13;100.0
64025;BME280;50266;57.446;26.936;2023-01-29T05:03:41;98971.98;;;-3.12;100.0
64025;BME280;50266;57.446;26.936;2023-01-29T05:04:40;98967.42;;;-3.11;100.0
64025;BME280;50266;57.446;26.936;2023-01-29T05:05:41;98973.85;;;-3.09;100.0
64025;BME280;50266;57.446;26.936;2023-01-29T05:06:40;98973.94;;;-3.08;100.0
64025;BME280;50266;57.446;26.936;2023-01-29T05:07:40;98966.11;;;-3.1;100.0
64025;BME280;50266;57.446;26.936;2023-01-29T05:08:40;98968.55;;;-3.1;100.0
64025;BME280;50266;57.446;26.936;2023-01-29T05:09:41;98969.32;;;-3.1;100.0
64025;BME280;50266;57.446;26.936;2023-01-29T05:10:41;98975.24;;;-3.08;100.0
64025;BME280;50266;57.446;26.936;2023-01-29T05:11:41;98974.27;;;-3.08;100.0
64025;BME280;50266;57.446;26.936;2023-01-29T05:12:42;98974.38;;;-3.09;100.0
64025;BME280;50266;57.446;26.936;2023-01-29T05:13:41;98974.16;;;-3.09;100.0
64025;BME280;50266;57.446;26.936;2023-01-29T05:14:41;98971.7;;;-3.07;100.0
64025;BME280;50266;57.446;26.936;2023-01-29T05:15:43;98968.92;;;-3.09;100.0
64025;BME280;50266;57.446;26.936;2023-01-29T05:16:42;98971.48;;;-3.1;100.0
64025;BME280;50266;57.446;26.936;2023-01-29T05:17:42;98966.23;;;-3.1;100.0
64025;BME280;50266;57.446;26.936;2023-01-29T05:18:42;98965.8;;;-3.08;100.0
64025;BME280;50266;57.446;26.936;2023-01-29T05:19:42;98965.66;;;-3.08;100.0
64025;BME280;50266;57.446;26.936;2023-01-29T05:20:42;98967.15;;;-3.07;100.0
64025;BME280;50266;57.446;26.936;2023-01-29T05:21:43;98968.72;;;-3.07;100.0
64025;BME280;50266;57.446;26.936;2023-01-29T05:22:42;98969.34;;;-3.06;100.0
64025;BME280;50266;57.446;26.936;2023-01-29T05:23:42;98968.82;;;-3.04;100.0
64025;BME280;50266;57.446;26.936;2023-01-29T05:24:42;98978.42;;;-3.04;100.0
64025;BME280;50266;57.446;26.936;2023-01-29T05:25:42;98969.39;;;-3.06;100.0
64025;BME280;50266;57.446;26.936;2023-01-29T05:26:43;98968.7;;;-3.03;100.0
64025;BME280;50266;57.446;26.936;2023-01-29T05:27:42;98968.59;;;-3.04;100.0
64025;BME280;50266;57.446;26.936;2023-01-29T05:28:42;98961.94;;;-3.04;100.0
64025;BME280;50266;57.446;26.936;2023-01-29T05:29:44;98967.36;;;-3.04;100.0
64025;BME280;50266;57.446;26.936;2023-01-29T05:30:46;98964.03;;;-3.03;100.0
64025;BME280;50266;57.446;26.936;2023-01-29T05:31:43;98959.27;;;-3.03;100.0
64025;BME280;50266;57.446;26.936;2023-01-29T05:32:43;98959.55;;;-3.03;100.0
64025;BME280;50266;57.446;26.936;2023-01-29T05:33:43;98963.17;;;-3.01;100.0
64025;BME280;50266;57.446;26.936;2023-01-29T05:34:43;98963.9;;;-2.99;100.0
64025;BME280;50266;57.446;26.936;2023-01-29T05:35:43;98959.67;;;-2.99;100.0
64025;BME280;50266;57.446;26.936;2023-01-29T05:36:43;98964.08;;;-2.97;100.0
64025;BME280;50266;57.446;26.936;2023-01-29T05:37:43;98962.44;;;-2.99;100.0
64025;BME280;50266;57.446;26.936;2023-01-29T05:38:43;98956.27;;;-2.99;100.0
64025;BME280;50266;57.446;26.936;2023-01-29T05:39:43;98964.38;;;-2.95;100.0
64025;BME280;50266;57.446;26.936;2023-01-29T05:40:43;98966.38;;;-2.96;100.0
64025;BME280;50266;57.446;26.936;2023-01-29T05:41:43;98959.02;;;-2.95;100.0
64025;BME280;50266;57.446;26.936;2023-01-29T05:42:43;98961.52;;;-2.96;100.0